sensor_id;sensor_type;location;lat;lon;timestamp;P1;durP1;ratioP1;P2;durP2;ratioP2
53503;SDS011;39387;50.998;22.340;2023-03-23T00:01:48;13.30;;;7.55;;
53503;SDS011;39387;50.998;22.340;2023-03-23T00:04:16;13.60;;;7.63;;
53503;SDS011;39387;50.998;22.340;2023-03-23T00:06:43;10.93;;;7.10;;
53503;SDS011;39387;50.998;22.340;2023-03-23T00:09:11;11.90;;;6.82;;
53503;SDS011;39387;50.998;22.340;2023-03-23T00:11:42;11.15;;;7.00;;
53503;SDS011;39387;50.998;22.340;2023-03-23T00:14:09;12.07;;;6.72;;
53503;SDS011;39387;50.998;22.340;2023-03-23T00:16:39;10.63;;;5.97;;
53503;SDS011;39387;50.998;22.340;2023-03-23T00:19:09;12.27;;;7.03;;
53503;SDS011;39387;50.998;22.340;2023-03-23T00:21:39;11.05;;;6.25;;
53503;SDS011;39387;50.998;22.340;2023-03-23T00:24:07;12.13;;;6.45;;
53503;SDS011;39387;50.998;22.340;2023-03-23T00:26:37;11.75;;;6.43;;
53503;SDS011;39387;50.998;22.340;2023-03-23T00:29:16;12.70;;;7.05;;
53503;SDS011;39387;50.998;22.340;2023-03-23T00:31:45;12.88;;;6.38;;
53503;SDS011;39387;50.998;22.340;2023-03-23T00:34:13;12.85;;;6.63;;
53503;SDS011;39387;50.998;22.340;2023-03-23T00:36:44;12.98;;;6.22;;
53503;SDS011;39387;50.998;22.340;2023-03-23T00:39:12;10.60;;;6.47;;
53503;SDS011;39387;50.998;22.340;2023-03-23T00:41:42;10.85;;;6.22;;
53503;SDS011;39387;50.998;22.340;2023-03-23T00:44:10;13.25;;;6.75;;
53503;SDS011;39387;50.998;22.340;2023-03-23T00:46:42;11.88;;;6.72;;
53503;SDS011;39387;50.998;22.340;2023-03-23T00:49:12;10.15;;;5.70;;
53503;SDS011;39387;50.998;22.340;2023-03-23T00:51:40;10.70;;;5.72;;
53503;SDS011;39387;50.998;22.340;2023-03-23T00:54:07;12.85;;;7.10;;
53503;SDS011;39387;50.998;22.340;2023-03-23T00:56:35;10.75;;;5.88;;
53503;SDS011;39387;50.998;22.340;2023-03-23T00:59:02;9.90;;;6.32;;
53503;SDS011;39387;50.998;22.340;2023-03-23T01:01:31;11.43;;;6.88;;
53503;SDS011;39387;50.998;22.340;2023-03-23T01:04:00;9.15;;;5.65;;
53503;SDS011;39387;50.998;22.340;2023-03-23T01:06:30;10.75;;;5.80;;
53503;SDS011;39387;50.998;22.340;2023-03-23T01:09:00;12.15;;;6.25;;
53503;SDS011;39387;50.998;22.340;2023-03-23T01:11:29;11.43;;;6.80;;
53503;SDS011;39387;50.998;22.340;2023-03-23T01:13:56;10.23;;;5.55;;
53503;SDS011;39387;50.998;22.340;2023-03-23T01:16:24;11.10;;;6.13;;
53503;SDS011;39387;50.998;22.340;2023-03-23T01:18:53;16.08;;;7.47;;
53503;SDS011;39387;50.998;22.340;2023-03-23T01:21:20;11.57;;;6.35;;
53503;SDS011;39387;50.998;22.340;2023-03-23T01:23:50;10.63;;;6.30;;
53503;SDS011;39387;50.998;22.340;2023-03-23T01:26:18;11.82;;;6.43;;
53503;SDS011;39387;50.998;22.340;2023-03-23T01:28:47;11.07;;;5.97;;
53503;SDS011;39387;50.998;22.340;2023-03-23T01:31:16;10.80;;;6.43;;
53503;SDS011;39387;50.998;22.340;2023-03-23T01:33:44;10.52;;;5.78;;
53503;SDS011;39387;50.998;22.340;2023-03-23T01:36:14;9.00;;;5.80;;
53503;SDS011;39387;50.998;22.340;2023-03-23T01:41:11;12.27;;;5.90;;
53503;SDS011;39387;50.998;22.340;2023-03-23T01:43:53;12.38;;;6.30;;
53503;SDS011;39387;50.998;22.340;2023-03-23T01:46:27;14.57;;;6.82;;
53503;SDS011;39387;50.998;22.340;2023-03-23T01:48:56;11.65;;;6.15;;
53503;SDS011;39387;50.998;22.340;2023-03-23T01:51:26;11.80;;;6.15;;
53503;SDS011;39387;50.998;22.340;2023-03-23T01:53:55;11.63;;;6.25;;
53503;SDS011;39387;50.998;22.340;2023-03-23T01:56:24;12.30;;;6.65;;
53503;SDS011;39387;50.998;22.340;2023-03-23T01:58:55;10.32;;;6.60;;
53503;SDS011;39387;50.998;22.340;2023-03-23T02:01:23;10.20;;;6.25;;
53503;SDS011;39387;50.998;22.340;2023-03-23T02:03:52;8.80;;;5.65;;
53503;SDS011;39387;50.998;22.340;2023-03-23T02:06:20;11.60;;;6.80;;
53503;SDS011;39387;50.998;22.340;2023-03-23T02:08:50;11.10;;;6.90;;
53503;SDS011;39387;50.998;22.340;2023-03-23T02:11:19;11.70;;;6.83;;
53503;SDS011;39387;50.998;22.340;2023-03-23T02:13:48;9.45;;;5.53;;
53503;SDS011;39387;50.998;22.340;2023-03-23T02:16:19;11.07;;;6.10;;
53503;SDS011;39387;50.998;22.340;2023-03-23T02:18:53;11.65;;;6.00;;
53503;SDS011;39387;50.998;22.340;2023-03-23T02:21:29;10.43;;;5.93;;
53503;SDS011;39387;50.998;22.340;2023-03-23T02:27:20;8.60;;;5.57;;
53503;SDS011;39387;50.998;22.340;2023-03-23T02:32:51;9.13;;;5.15;;
53503;SDS011;39387;50.998;22.340;2023-03-23T02:38:06;10.52;;;5.50;;
53503;SDS011;39387;50.998;22.340;2023-03-23T02:40:37;9.00;;;5.28;;
53503;SDS011;39387;50.998;22.340;2023-03-23T02:43:07;9.43;;;5.63;;
53503;SDS011;39387;50.998;22.340;2023-03-23T02:45:36;8.30;;;5.20;;
53503;SDS011;39387;50.998;22.340;2023-03-23T02:48:05;8.90;;;5.22;;
53503;SDS011;39387;50.998;22.340;2023-03-23T02:50:33;9.57;;;5.50;;
53503;SDS011;39387;50.998;22.340;2023-03-23T02:53:02;10.50;;;5.85;;
53503;SDS011;39387;50.998;22.340;2023-03-23T02:55:31;9.40;;;5.47;;
53503;SDS011;39387;50.998;22.340;2023-03-23T02:57:59;10.60;;;5.10;;
53503;SDS011;39387;50.998;22.340;2023-03-23T03:00:27;8.07;;;4.93;;
53503;SDS011;39387;50.998;22.340;2023-03-23T03:02:55;8.73;;;5.45;;
53503;SDS011;39387;50.998;22.340;2023-03-23T03:05:27;9.52;;;5.30;;
53503;SDS011;39387;50.998;22.340;2023-03-23T03:08:07;8.15;;;4.90;;
53503;SDS011;39387;50.998;22.340;2023-03-23T03:10:42;8.38;;;4.97;;
53503;SDS011;39387;50.998;22.340;2023-03-23T03:13:14;8.50;;;5.38;;
53503;SDS011;39387;50.998;22.340;2023-03-23T03:15:51;9.35;;;5.78;;
53503;SDS011;39387;50.998;22.340;2023-03-23T03:18:21;10.23;;;5.65;;
53503;SDS011;39387;50.998;22.340;2023-03-23T03:20:53;9.50;;;5.45;;
53503;SDS011;39387;50.998;22.340;2023-03-23T03:23:23;8.27;;;5.20;;
53503;SDS011;39387;50.998;22.340;2023-03-23T03:25:51;10.77;;;5.63;;
53503;SDS011;39387;50.998;22.340;2023-03-23T03:28:20;9.63;;;5.50;;
53503;SDS011;39387;50.998;22.340;2023-03-23T03:30:49;9.30;;;5.68;;
53503;SDS011;39387;50.998;22.340;2023-03-23T03:33:19;10.05;;;6.10;;
53503;SDS011;39387;50.998;22.340;2023-03-23T03:35:51;8.85;;;5.10;;
53503;SDS011;39387;50.998;22.340;2023-03-23T03:38:19;8.50;;;5.15;;
53503;SDS011;39387;50.998;22.340;2023-03-23T03:40:48;9.60;;;5.45;;
53503;SDS011;39387;50.998;22.340;2023-03-23T03:43:15;9.15;;;5.47;;
53503;SDS011;39387;50.998;22.340;2023-03-23T03:45:43;9.60;;;5.50;;
53503;SDS011;39387;50.998;22.340;2023-03-23T03:48:11;9.85;;;5.38;;
53503;SDS011;39387;50.998;22.340;2023-03-23T03:50:38;8.73;;;5.57;;
53503;SDS011;39387;50.998;22.340;2023-03-23T03:53:06;10.50;;;5.43;;
53503;SDS011;39387;50.998;22.340;2023-03-23T03:55:33;8.07;;;5.18;;
53503;SDS011;39387;50.998;22.340;2023-03-23T03:58:05;9.35;;;5.50;;
53503;SDS011;39387;50.998;22.340;2023-03-23T04:00:34;10.30;;;6.00;;
53503;SDS011;39387;50.998;22.340;2023-03-23T04:03:01;7.57;;;5.22;;
53503;SDS011;39387;50.998;22.340;2023-03-23T04:05:28;7.50;;;4.82;;
53503;SDS011;39387;50.998;22.340;2023-03-23T04:07:56;9.93;;;5.32;;
53503;SDS011;39387;50.998;22.340;2023-03-23T04:10:27;10.55;;;5.63;;
53503;SDS011;39387;50.998;22.340;2023-03-23T04:12:55;11.35;;;5.18;;
53503;SDS011;39387;50.998;22.340;2023-03-23T04:15:24;8.05;;;5.28;;
53503;SDS011;39387;50.998;22.340;2023-03-23T04:17:52;9.63;;;5.40;;
53503;SDS011;39387;50.998;22.340;2023-03-23T04:20:22;7.88;;;4.97;;
53503;SDS011;39387;50.998;22.340;2023-03-23T04:22:50;7.55;;;4.80;;
53503;SDS011;39387;50.998;22.340;2023-03-23T04:25:21;8.52;;;5.50;;
53503;SDS011;39387;50.998;22.340;2023-03-23T04:27:50;9.88;;;5.82;;
53503;SDS011;39387;50.998;22.340;2023-03-23T04:30:19;8.50;;;5.63;;
53503;SDS011;39387;50.998;22.340;2023-03-23T04:32:49;8.20;;;5.10;;
53503;SDS011;39387;50.998;22.340;2023-03-23T04:35:18;9.07;;;5.25;;
53503;SDS011;39387;50.998;22.340;2023-03-23T04:37:46;7.72;;;4.72;;
53503;SDS011;39387;50.998;22.340;2023-03-23T04:40:14;8.82;;;5.50;;
53503;SDS011;39387;50.998;22.340;2023-03-23T04:42:43;8.32;;;4.95;;
53503;SDS011;39387;50.998;22.340;2023-03-23T04:45:12;8.60;;;5.00;;
53503;SDS011;39387;50.998;22.340;2023-03-23T04:47:42;7.22;;;4.75;;
53503;SDS011;39387;50.998;22.340;2023-03-23T04:50:20;8.30;;;4.50;;
53503;SDS011;39387;50.998;22.340;2023-03-23T04:52:49;8.32;;;4.70;;
53503;SDS011;39387;50.998;22.340;2023-03-23T04:55:19;9.50;;;4.82;;
53503;SDS011;39387;50.998;22.340;2023-03-23T04:57:47;7.47;;;4.90;;
53503;SDS011;39387;50.998;22.340;2023-03-23T05:00:14;6.63;;;4.50;;
53503;SDS011;39387;50.998;22.340;2023-03-23T05:02:44;6.63;;;4.38;;
53503;SDS011;39387;50.998;22.340;2023-03-23T05:05:12;8.32;;;4.88;;
53503;SDS011;39387;50.998;22.340;2023-03-23T05:07:42;9.05;;;4.93;;
53503;SDS011;39387;50.998;22.340;2023-03-23T05:10:10;7.60;;;4.50;;
53503;SDS011;39387;50.998;22.340;2023-03-23T05:12:39;7.28;;;4.53;;
53503;SDS011;39387;50.998;22.340;2023-03-23T05:15:06;8.77;;;4.60;;
53503;SDS011;39387;50.998;22.340;2023-03-23T05:17:39;7.75;;;5.05;;
53503;SDS011;39387;50.998;22.340;2023-03-23T05:20:09;7.55;;;4.47;;
53503;SDS011;39387;50.998;22.340;2023-03-23T05:22:38;7.55;;;4.40;;
53503;SDS011;39387;50.998;22.340;2023-03-23T05:25:08;9.88;;;5.80;;
53503;SDS011;39387;50.998;22.340;2023-03-23T05:27:35;7.82;;;4.57;;
53503;SDS011;39387;50.998;22.340;2023-03-23T05:30:04;8.18;;;5.05;;
53503;SDS011;39387;50.998;22.340;2023-03-23T05:32:32;7.05;;;4.72;;
53503;SDS011;39387;50.998;22.340;2023-03-23T05:35:00;8.20;;;5.20;;
53503;SDS011;39387;50.998;22.340;2023-03-23T05:37:29;7.38;;;4.90;;
53503;SDS011;39387;50.998;22.340;2023-03-23T05:39:58;6.68;;;4.47;;
53503;SDS011;39387;50.998;22.340;2023-03-23T05:42:32;7.90;;;4.43;;
53503;SDS011;39387;50.998;22.340;2023-03-23T05:45:00;7.75;;;5.00;;
53503;SDS011;39387;50.998;22.340;2023-03-23T05:47:27;7.28;;;4.60;;
53503;SDS011;39387;50.998;22.340;2023-03-23T05:49:54;7.53;;;4.82;;
53503;SDS011;39387;50.998;22.340;2023-03-23T05:52:22;7.55;;;4.68;;
53503;SDS011;39387;50.998;22.340;2023-03-23T05:54:50;6.47;;;4.57;;
53503;SDS011;39387;50.998;22.340;2023-03-23T05:57:18;7.70;;;4.82;;
53503;SDS011;39387;50.998;22.340;2023-03-23T05:59:48;6.95;;;4.78;;
53503;SDS011;39387;50.998;22.340;2023-03-23T06:02:16;7.85;;;4.63;;
53503;SDS011;39387;50.998;22.340;2023-03-23T06:04:43;7.40;;;5.18;;
53503;SDS011;39387;50.998;22.340;2023-03-23T06:07:10;7.55;;;4.57;;
53503;SDS011;39387;50.998;22.340;2023-03-23T06:09:40;8.50;;;4.68;;
53503;SDS011;39387;50.998;22.340;2023-03-23T06:12:08;6.72;;;4.82;;
53503;SDS011;39387;50.998;22.340;2023-03-23T06:14:37;9.10;;;5.13;;
53503;SDS011;39387;50.998;22.340;2023-03-23T06:17:06;7.70;;;4.50;;
53503;SDS011;39387;50.998;22.340;2023-03-23T06:19:34;7.38;;;4.50;;
53503;SDS011;39387;50.998;22.340;2023-03-23T06:22:01;7.93;;;4.93;;
53503;SDS011;39387;50.998;22.340;2023-03-23T06:24:31;6.97;;;4.60;;
53503;SDS011;39387;50.998;22.340;2023-03-23T06:26:59;6.55;;;4.60;;
53503;SDS011;39387;50.998;22.340;2023-03-23T06:29:27;8.02;;;4.75;;
53503;SDS011;39387;50.998;22.340;2023-03-23T06:31:57;7.93;;;4.68;;
53503;SDS011;39387;50.998;22.340;2023-03-23T06:34:27;4.85;;;4.05;;
53503;SDS011;39387;50.998;22.340;2023-03-23T06:36:55;9.13;;;4.72;;
53503;SDS011;39387;50.998;22.340;2023-03-23T06:39:22;7.40;;;5.00;;
53503;SDS011;39387;50.998;22.340;2023-03-23T06:41:50;7.03;;;4.72;;
53503;SDS011;39387;50.998;22.340;2023-03-23T06:44:17;6.38;;;4.35;;
53503;SDS011;39387;50.998;22.340;2023-03-23T06:46:45;7.15;;;4.45;;
53503;SDS011;39387;50.998;22.340;2023-03-23T06:49:14;7.80;;;4.78;;
53503;SDS011;39387;50.998;22.340;2023-03-23T06:51:43;7.38;;;4.95;;
53503;SDS011;39387;50.998;22.340;2023-03-23T06:54:10;5.45;;;4.40;;
53503;SDS011;39387;50.998;22.340;2023-03-23T06:56:38;5.07;;;4.30;;
53503;SDS011;39387;50.998;22.340;2023-03-23T06:59:05;6.72;;;4.40;;
53503;SDS011;39387;50.998;22.340;2023-03-23T07:01:33;7.18;;;4.47;;
53503;SDS011;39387;50.998;22.340;2023-03-23T07:04:01;6.05;;;4.28;;
53503;SDS011;39387;50.998;22.340;2023-03-23T07:06:28;6.53;;;4.57;;
53503;SDS011;39387;50.998;22.340;2023-03-23T07:08:57;6.57;;;4.88;;
53503;SDS011;39387;50.998;22.340;2023-03-23T07:11:25;7.78;;;4.47;;
53503;SDS011;39387;50.998;22.340;2023-03-23T07:13:53;7.50;;;4.55;;
53503;SDS011;39387;50.998;22.340;2023-03-23T07:16:20;7.15;;;4.85;;
53503;SDS011;39387;50.998;22.340;2023-03-23T07:18:48;6.30;;;4.25;;
53503;SDS011;39387;50.998;22.340;2023-03-23T07:21:16;6.57;;;5.00;;
53503;SDS011;39387;50.998;22.340;2023-03-23T07:23:43;7.72;;;5.10;;
53503;SDS011;39387;50.998;22.340;2023-03-23T07:26:13;6.05;;;4.45;;
53503;SDS011;39387;50.998;22.340;2023-03-23T07:28:41;7.03;;;4.82;;
53503;SDS011;39387;50.998;22.340;2023-03-23T07:31:08;6.88;;;4.32;;
53503;SDS011;39387;50.998;22.340;2023-03-23T07:33:36;7.55;;;5.28;;
53503;SDS011;39387;50.998;22.340;2023-03-23T07:36:04;8.23;;;5.57;;
53503;SDS011;39387;50.998;22.340;2023-03-23T07:38:34;9.18;;;5.47;;
53503;SDS011;39387;50.998;22.340;2023-03-23T07:41:01;7.03;;;4.63;;
53503;SDS011;39387;50.998;22.340;2023-03-23T07:43:30;5.90;;;4.55;;
53503;SDS011;39387;50.998;22.340;2023-03-23T07:45:57;7.88;;;5.13;;
53503;SDS011;39387;50.998;22.340;2023-03-23T07:48:25;8.32;;;5.22;;
53503;SDS011;39387;50.998;22.340;2023-03-23T07:50:52;7.00;;;4.90;;
53503;SDS011;39387;50.998;22.340;2023-03-23T07:53:20;6.40;;;4.85;;
53503;SDS011;39387;50.998;22.340;2023-03-23T07:55:48;6.97;;;4.93;;
53503;SDS011;39387;50.998;22.340;2023-03-23T07:58:16;6.68;;;5.00;;
53503;SDS011;39387;50.998;22.340;2023-03-23T08:00:46;6.45;;;4.78;;
53503;SDS011;39387;50.998;22.340;2023-03-23T08:03:15;6.65;;;4.78;;
53503;SDS011;39387;50.998;22.340;2023-03-23T08:05:43;7.75;;;4.97;;
53503;SDS011;39387;50.998;22.340;2023-03-23T08:08:11;6.03;;;4.88;;
53503;SDS011;39387;50.998;22.340;2023-03-23T08:10:39;7.30;;;5.00;;
53503;SDS011;39387;50.998;22.340;2023-03-23T08:13:07;6.88;;;5.00;;
53503;SDS011;39387;50.998;22.340;2023-03-23T08:15:35;6.63;;;5.03;;
53503;SDS011;39387;50.998;22.340;2023-03-23T08:18:05;6.72;;;5.22;;
53503;SDS011;39387;50.998;22.340;2023-03-23T08:20:32;6.80;;;5.20;;
53503;SDS011;39387;50.998;22.340;2023-03-23T08:22:59;8.25;;;5.00;;
53503;SDS011;39387;50.998;22.340;2023-03-23T08:25:27;8.05;;;5.78;;
53503;SDS011;39387;50.998;22.340;2023-03-23T08:27:57;7.65;;;5.20;;
53503;SDS011;39387;50.998;22.340;2023-03-23T08:30:27;8.15;;;5.25;;
53503;SDS011;39387;50.998;22.340;2023-03-23T08:32:55;6.60;;;4.70;;
53503;SDS011;39387;50.998;22.340;2023-03-23T08:35:24;6.57;;;4.80;;
53503;SDS011;39387;50.998;22.340;2023-03-23T08:37:52;5.85;;;4.65;;
53503;SDS011;39387;50.998;22.340;2023-03-23T08:40:20;7.93;;;5.35;;
53503;SDS011;39387;50.998;22.340;2023-03-23T08:42:49;6.25;;;4.55;;
53503;SDS011;39387;50.998;22.340;2023-03-23T08:45:18;7.43;;;5.13;;
53503;SDS011;39387;50.998;22.340;2023-03-23T08:47:47;7.20;;;4.63;;
53503;SDS011;39387;50.998;22.340;2023-03-23T08:50:19;7.03;;;4.65;;
53503;SDS011;39387;50.998;22.340;2023-03-23T08:52:50;6.10;;;4.80;;
53503;SDS011;39387;50.998;22.340;2023-03-23T08:55:19;6.43;;;4.93;;
53503;SDS011;39387;50.998;22.340;2023-03-23T08:57:47;4.90;;;4.40;;
53503;SDS011;39387;50.998;22.340;2023-03-23T09:00:16;6.20;;;5.03;;
53503;SDS011;39387;50.998;22.340;2023-03-23T09:02:45;6.43;;;4.80;;
53503;SDS011;39387;50.998;22.340;2023-03-23T09:05:14;6.35;;;4.85;;
53503;SDS011;39387;50.998;22.340;2023-03-23T09:07:44;6.00;;;4.22;;
53503;SDS011;39387;50.998;22.340;2023-03-23T09:10:14;5.32;;;4.82;;
53503;SDS011;39387;50.998;22.340;2023-03-23T09:12:43;7.30;;;4.57;;
53503;SDS011;39387;50.998;22.340;2023-03-23T09:15:12;5.18;;;4.15;;
53503;SDS011;39387;50.998;22.340;2023-03-23T09:17:42;5.32;;;4.20;;
53503;SDS011;39387;50.998;22.340;2023-03-23T09:20:11;5.43;;;3.80;;
53503;SDS011;39387;50.998;22.340;2023-03-23T09:22:40;4.78;;;4.28;;
53503;SDS011;39387;50.998;22.340;2023-03-23T09:25:08;4.97;;;3.90;;
53503;SDS011;39387;50.998;22.340;2023-03-23T09:27:38;5.70;;;3.95;;
53503;SDS011;39387;50.998;22.340;2023-03-23T09:30:07;4.45;;;4.03;;
53503;SDS011;39387;50.998;22.340;2023-03-23T09:32:37;6.43;;;4.50;;
53503;SDS011;39387;50.998;22.340;2023-03-23T09:35:05;5.10;;;3.97;;
53503;SDS011;39387;50.998;22.340;2023-03-23T09:37:34;5.05;;;4.18;;
53503;SDS011;39387;50.998;22.340;2023-03-23T09:40:02;4.55;;;3.72;;
53503;SDS011;39387;50.998;22.340;2023-03-23T09:42:34;5.45;;;4.47;;
53503;SDS011;39387;50.998;22.340;2023-03-23T09:45:09;5.05;;;4.03;;
53503;SDS011;39387;50.998;22.340;2023-03-23T09:47:43;5.13;;;4.35;;
53503;SDS011;39387;50.998;22.340;2023-03-23T09:50:14;6.32;;;4.18;;
53503;SDS011;39387;50.998;22.340;2023-03-23T09:52:44;6.22;;;4.32;;
53503;SDS011;39387;50.998;22.340;2023-03-23T09:55:14;5.13;;;4.20;;
53503;SDS011;39387;50.998;22.340;2023-03-23T09:57:46;5.07;;;3.95;;
53503;SDS011;39387;50.998;22.340;2023-03-23T10:00:18;7.82;;;4.40;;
53503;SDS011;39387;50.998;22.340;2023-03-23T10:02:49;5.70;;;4.50;;
53503;SDS011;39387;50.998;22.340;2023-03-23T10:05:25;5.25;;;4.60;;
53503;SDS011;39387;50.998;22.340;2023-03-23T10:07:57;5.25;;;4.00;;
53503;SDS011;39387;50.998;22.340;2023-03-23T10:10:26;4.55;;;3.90;;
53503;SDS011;39387;50.998;22.340;2023-03-23T10:13:02;5.70;;;4.40;;
53503;SDS011;39387;50.998;22.340;2023-03-23T10:15:33;5.82;;;4.13;;
53503;SDS011;39387;50.998;22.340;2023-03-23T10:18:04;6.03;;;4.18;;
53503;SDS011;39387;50.998;22.340;2023-03-23T10:20:40;6.53;;;4.50;;
53503;SDS011;39387;50.998;22.340;2023-03-23T10:23:24;5.50;;;4.40;;
53503;SDS011;39387;50.998;22.340;2023-03-23T10:26:13;7.57;;;4.60;;
53503;SDS011;39387;50.998;22.340;2023-03-23T10:28:50;6.28;;;4.32;;
53503;SDS011;39387;50.998;22.340;2023-03-23T10:31:20;7.78;;;4.50;;
53503;SDS011;39387;50.998;22.340;2023-03-23T10:33:50;5.95;;;4.55;;
53503;SDS011;39387;50.998;22.340;2023-03-23T10:36:21;4.88;;;4.20;;
53503;SDS011;39387;50.998;22.340;2023-03-23T10:38:53;6.13;;;4.15;;
53503;SDS011;39387;50.998;22.340;2023-03-23T10:41:24;6.75;;;4.30;;
53503;SDS011;39387;50.998;22.340;2023-03-23T10:43:53;5.85;;;4.15;;
53503;SDS011;39387;50.998;22.340;2023-03-23T10:46:24;4.60;;;4.03;;
53503;SDS011;39387;50.998;22.340;2023-03-23T10:48:56;6.53;;;4.85;;
53503;SDS011;39387;50.998;22.340;2023-03-23T10:51:27;5.80;;;4.53;;
53503;SDS011;39387;50.998;22.340;2023-03-23T10:53:58;5.68;;;4.28;;
53503;SDS011;39387;50.998;22.340;2023-03-23T10:58:57;6.55;;;4.32;;
53503;SDS011;39387;50.998;22.340;2023-03-23T11:01:29;5.25;;;4.28;;
53503;SDS011;39387;50.998;22.340;2023-03-23T11:03:58;5.45;;;4.43;;
53503;SDS011;39387;50.998;22.340;2023-03-23T11:06:27;12.82;;;4.70;;
53503;SDS011;39387;50.998;22.340;2023-03-23T11:09:00;5.45;;;4.18;;
53503;SDS011;39387;50.998;22.340;2023-03-23T11:11:30;6.00;;;4.75;;
53503;SDS011;39387;50.998;22.340;2023-03-23T11:14:01;6.60;;;3.97;;
53503;SDS011;39387;50.998;22.340;2023-03-23T11:18:57;7.30;;;4.53;;
53503;SDS011;39387;50.998;22.340;2023-03-23T11:21:25;6.22;;;4.40;;
53503;SDS011;39387;50.998;22.340;2023-03-23T11:23:55;6.47;;;4.70;;
53503;SDS011;39387;50.998;22.340;2023-03-23T11:26:27;5.35;;;4.47;;
53503;SDS011;39387;50.998;22.340;2023-03-23T11:28:57;5.38;;;3.80;;
53503;SDS011;39387;50.998;22.340;2023-03-23T11:31:29;5.55;;;4.53;;
53503;SDS011;39387;50.998;22.340;2023-03-23T11:33:59;5.63;;;4.30;;
53503;SDS011;39387;50.998;22.340;2023-03-23T11:39:00;4.65;;;4.15;;
53503;SDS011;39387;50.998;22.340;2023-03-23T11:41:31;5.18;;;3.58;;
53503;SDS011;39387;50.998;22.340;2023-03-23T11:44:03;6.28;;;3.63;;
53503;SDS011;39387;50.998;22.340;2023-03-23T11:46:39;5.00;;;3.65;;
53503;SDS011;39387;50.998;22.340;2023-03-23T11:49:18;5.68;;;3.83;;
53503;SDS011;39387;50.998;22.340;2023-03-23T11:51:53;4.25;;;3.55;;
53503;SDS011;39387;50.998;22.340;2023-03-23T11:54:27;4.78;;;3.40;;
53503;SDS011;39387;50.998;22.340;2023-03-23T11:56:56;4.78;;;3.50;;
53503;SDS011;39387;50.998;22.340;2023-03-23T11:59:27;3.67;;;3.38;;
53503;SDS011;39387;50.998;22.340;2023-03-23T12:02:00;3.90;;;3.30;;
53503;SDS011;39387;50.998;22.340;2023-03-23T12:04:43;3.88;;;3.22;;
53503;SDS011;39387;50.998;22.340;2023-03-23T12:07:28;4.63;;;3.33;;
53503;SDS011;39387;50.998;22.340;2023-03-23T12:10:03;4.53;;;3.75;;
53503;SDS011;39387;50.998;22.340;2023-03-23T12:12:38;4.32;;;2.95;;
53503;SDS011;39387;50.998;22.340;2023-03-23T12:15:13;4.03;;;3.17;;
53503;SDS011;39387;50.998;22.340;2023-03-23T12:17:48;3.95;;;3.42;;
53503;SDS011;39387;50.998;22.340;2023-03-23T12:20:25;4.38;;;3.10;;
53503;SDS011;39387;50.998;22.340;2023-03-23T12:22:59;4.57;;;3.05;;
53503;SDS011;39387;50.998;22.340;2023-03-23T12:25:43;3.50;;;3.00;;
53503;SDS011;39387;50.998;22.340;2023-03-23T12:28:22;2.92;;;2.63;;
53503;SDS011;39387;50.998;22.340;2023-03-23T12:30:59;3.80;;;2.88;;
53503;SDS011;39387;50.998;22.340;2023-03-23T12:33:34;4.15;;;3.03;;
53503;SDS011;39387;50.998;22.340;2023-03-23T12:36:13;3.88;;;3.17;;
53503;SDS011;39387;50.998;22.340;2023-03-23T12:38:53;3.45;;;2.60;;
53503;SDS011;39387;50.998;22.340;2023-03-23T12:41:39;3.55;;;3.03;;
53503;SDS011;39387;50.998;22.340;2023-03-23T12:44:11;3.72;;;3.00;;
53503;SDS011;39387;50.998;22.340;2023-03-23T12:46:44;4.47;;;2.80;;
53503;SDS011;39387;50.998;22.340;2023-03-23T12:49:22;3.38;;;3.00;;
53503;SDS011;39387;50.998;22.340;2023-03-23T12:51:54;4.03;;;2.70;;
53503;SDS011;39387;50.998;22.340;2023-03-23T12:54:28;3.58;;;2.83;;
53503;SDS011;39387;50.998;22.340;2023-03-23T12:57:00;4.30;;;2.95;;
53503;SDS011;39387;50.998;22.340;2023-03-23T12:59:33;3.38;;;2.72;;
53503;SDS011;39387;50.998;22.340;2023-03-23T13:02:07;3.53;;;2.55;;
53503;SDS011;39387;50.998;22.340;2023-03-23T13:04:42;3.80;;;2.90;;
53503;SDS011;39387;50.998;22.340;2023-03-23T13:07:12;3.22;;;2.50;;
53503;SDS011;39387;50.998;22.340;2023-03-23T13:09:46;3.78;;;2.72;;
53503;SDS011;39387;50.998;22.340;2023-03-23T13:12:16;4.25;;;2.80;;
53503;SDS011;39387;50.998;22.340;2023-03-23T13:14:46;3.47;;;2.72;;
53503;SDS011;39387;50.998;22.340;2023-03-23T13:17:22;4.13;;;2.85;;
53503;SDS011;39387;50.998;22.340;2023-03-23T13:19:59;2.95;;;2.53;;
53503;SDS011;39387;50.998;22.340;2023-03-23T13:22:39;4.57;;;2.83;;
53503;SDS011;39387;50.998;22.340;2023-03-23T13:25:13;2.85;;;2.30;;
53503;SDS011;39387;50.998;22.340;2023-03-23T13:27:42;2.58;;;2.35;;
53503;SDS011;39387;50.998;22.340;2023-03-23T13:30:17;3.35;;;2.28;;
53503;SDS011;39387;50.998;22.340;2023-03-23T13:32:50;3.20;;;2.53;;
53503;SDS011;39387;50.998;22.340;2023-03-23T13:35:19;3.42;;;2.80;;
53503;SDS011;39387;50.998;22.340;2023-03-23T13:37:48;3.03;;;2.55;;
53503;SDS011;39387;50.998;22.340;2023-03-23T13:40:20;4.03;;;2.58;;
53503;SDS011;39387;50.998;22.340;2023-03-23T13:42:54;5.47;;;3.00;;
53503;SDS011;39387;50.998;22.340;2023-03-23T13:45:23;3.78;;;3.08;;
53503;SDS011;39387;50.998;22.340;2023-03-23T13:48:04;3.75;;;2.95;;
53503;SDS011;39387;50.998;22.340;2023-03-23T13:50:52;4.75;;;2.80;;
53503;SDS011;39387;50.998;22.340;2023-03-23T13:53:24;2.75;;;2.50;;
53503;SDS011;39387;50.998;22.340;2023-03-23T13:56:05;3.42;;;3.08;;
53503;SDS011;39387;50.998;22.340;2023-03-23T13:58:44;3.55;;;2.97;;
53503;SDS011;39387;50.998;22.340;2023-03-23T14:01:14;3.95;;;3.10;;
53503;SDS011;39387;50.998;22.340;2023-03-23T14:03:44;5.22;;;2.95;;
53503;SDS011;39387;50.998;22.340;2023-03-23T14:06:18;3.83;;;2.78;;
53503;SDS011;39387;50.998;22.340;2023-03-23T14:08:48;3.75;;;3.00;;
53503;SDS011;39387;50.998;22.340;2023-03-23T14:11:19;3.90;;;3.03;;
53503;SDS011;39387;50.998;22.340;2023-03-23T14:14:00;3.72;;;3.25;;
53503;SDS011;39387;50.998;22.340;2023-03-23T14:16:35;3.63;;;2.85;;
53503;SDS011;39387;50.998;22.340;2023-03-23T14:19:04;4.80;;;3.60;;
53503;SDS011;39387;50.998;22.340;2023-03-23T14:21:48;3.50;;;2.72;;
53503;SDS011;39387;50.998;22.340;2023-03-23T14:24:19;4.20;;;2.72;;
53503;SDS011;39387;50.998;22.340;2023-03-23T14:26:49;3.78;;;2.75;;
53503;SDS011;39387;50.998;22.340;2023-03-23T14:29:19;3.87;;;2.60;;
53503;SDS011;39387;50.998;22.340;2023-03-23T14:31:52;4.03;;;2.58;;
53503;SDS011;39387;50.998;22.340;2023-03-23T14:34:22;5.55;;;3.22;;
53503;SDS011;39387;50.998;22.340;2023-03-23T14:36:54;5.65;;;3.38;;
53503;SDS011;39387;50.998;22.340;2023-03-23T14:41:53;6.22;;;4.25;;
53503;SDS011;39387;50.998;22.340;2023-03-23T14:44:22;8.98;;;3.85;;
53503;SDS011;39387;50.998;22.340;2023-03-23T14:46:51;5.27;;;4.07;;
53503;SDS011;39387;50.998;22.340;2023-03-23T14:49:21;4.78;;;3.30;;
53503;SDS011;39387;50.998;22.340;2023-03-23T14:51:52;3.95;;;3.00;;
53503;SDS011;39387;50.998;22.340;2023-03-23T14:54:23;6.28;;;3.65;;
53503;SDS011;39387;50.998;22.340;2023-03-23T14:56:51;6.75;;;4.00;;
53503;SDS011;39387;50.998;22.340;2023-03-23T14:59:19;7.78;;;4.72;;
53503;SDS011;39387;50.998;22.340;2023-03-23T15:01:48;6.03;;;3.75;;
53503;SDS011;39387;50.998;22.340;2023-03-23T15:04:18;6.50;;;3.60;;
53503;SDS011;39387;50.998;22.340;2023-03-23T15:06:48;4.95;;;2.90;;
53503;SDS011;39387;50.998;22.340;2023-03-23T15:09:21;5.80;;;2.80;;
53503;SDS011;39387;50.998;22.340;2023-03-23T15:11:51;3.53;;;2.80;;
53503;SDS011;39387;50.998;22.340;2023-03-23T15:14:21;3.85;;;2.65;;